createdAt,value
2017-07-18T00:01:40.526Z,2.53
2017-07-18T00:04:08.604Z,3.00
2017-07-18T00:06:36.779Z,2.75
2017-07-18T00:09:05.618Z,2.50
2017-07-18T00:11:33.698Z,2.00
2017-07-18T00:14:02.195Z,2.20
2017-07-18T00:16:30.724Z,2.20
2017-07-18T00:18:59.285Z,2.58
2017-07-18T00:21:27.463Z,2.00
2017-07-18T00:23:55.540Z,2.40
2017-07-18T00:26:23.617Z,2.45
2017-07-18T00:28:51.709Z,2.10
2017-07-18T00:31:21.566Z,1.83
2017-07-18T00:33:49.638Z,2.40
2017-07-18T00:36:17.734Z,1.87
2017-07-18T00:38:46.575Z,2.62
2017-07-18T00:41:14.703Z,2.42
2017-07-18T00:43:42.782Z,2.75
2017-07-18T00:46:10.846Z,2.28
2017-07-18T00:48:38.934Z,2.30
2017-07-18T00:51:07.043Z,2.62
2017-07-18T00:53:35.125Z,2.17
2017-07-18T00:56:03.195Z,2.53
2017-07-18T00:58:31.303Z,2.37
2017-07-18T01:00:59.382Z,2.00
2017-07-18T01:03:27.445Z,2.08
2017-07-18T01:05:55.545Z,2.50
2017-07-18T01:08:23.615Z,2.00
2017-07-18T01:10:51.694Z,2.37
2017-07-18T01:13:20.194Z,2.33
2017-07-18T01:15:48.261Z,2.78
2017-07-18T01:18:17.098Z,1.98
2017-07-18T01:20:45.195Z,2.40
2017-07-18T01:23:13.270Z,2.15
2017-07-18T01:25:41.743Z,1.75
2017-07-18T01:28:09.863Z,2.42
2017-07-18T01:30:38.712Z,2.00
2017-07-18T01:33:06.786Z,2.25
2017-07-18T01:35:35.255Z,2.15
2017-07-18T01:38:03.727Z,2.67
2017-07-18T01:40:31.803Z,2.92
2017-07-18T01:42:59.919Z,2.20
2017-07-18T01:45:28.786Z,2.78
2017-07-18T01:47:56.861Z,2.20
2017-07-18T01:50:25.358Z,2.03
2017-07-18T01:52:53.891Z,2.37
2017-07-18T01:55:21.942Z,2.20
2017-07-18T01:57:50.467Z,2.22
2017-07-18T02:00:20.051Z,2.40
2017-07-18T02:02:48.131Z,1.90
2017-07-18T02:05:16.234Z,1.92
2017-07-18T02:07:44.310Z,1.90
2017-07-18T02:10:12.381Z,2.35
2017-07-18T02:12:40.491Z,1.80
2017-07-18T02:15:08.958Z,2.40
2017-07-18T02:17:37.026Z,2.53
2017-07-18T02:20:05.142Z,2.17
2017-07-18T02:22:33.220Z,2.12
2017-07-18T02:25:01.690Z,2.40
2017-07-18T02:27:29.777Z,2.25
2017-07-18T02:29:57.950Z,2.35
2017-07-18T02:32:26.127Z,2.10
2017-07-18T02:34:54.299Z,2.60
2017-07-18T02:37:22.882Z,2.60
2017-07-18T02:39:51.059Z,2.20
2017-07-18T02:42:19.639Z,2.40
2017-07-18T02:44:47.847Z,2.70
2017-07-18T02:47:16.719Z,2.60
2017-07-18T02:49:45.290Z,2.60
2017-07-18T02:52:13.481Z,2.90
2017-07-18T02:54:41.639Z,2.20
2017-07-18T02:57:09.815Z,2.00
2017-07-18T02:59:37.986Z,2.65
2017-07-18T03:02:06.101Z,2.10
2017-07-18T03:04:34.951Z,2.90
2017-07-18T03:07:03.118Z,2.67
2017-07-18T03:09:32.015Z,2.53
2017-07-18T03:12:00.091Z,2.45
2017-07-18T03:14:28.267Z,2.15
2017-07-18T03:16:56.848Z,2.80
2017-07-18T03:19:25.330Z,2.83
2017-07-18T03:21:53.506Z,2.37
2017-07-18T03:24:35.599Z,1.95
2017-07-18T03:27:03.705Z,2.35
2017-07-18T03:29:31.778Z,2.72
2017-07-18T03:32:00.263Z,2.60
2017-07-18T03:34:29.127Z,2.80
2017-07-18T03:36:57.199Z,2.78
2017-07-18T03:39:25.288Z,3.05
2017-07-18T03:41:53.358Z,2.37
2017-07-18T03:44:21.451Z,2.83
2017-07-18T03:46:50.324Z,2.10
2017-07-18T03:49:18.399Z,2.75
2017-07-18T03:51:46.866Z,2.67
2017-07-18T03:54:14.957Z,2.80
2017-07-18T03:56:43.797Z,2.30
2017-07-18T03:59:12.307Z,2.47
2017-07-18T04:01:40.378Z,2.10
2017-07-18T04:04:10.000Z,2.30
2017-07-18T04:06:38.086Z,2.55
2017-07-18T04:09:06.923Z,3.00
2017-07-18T04:11:34.994Z,2.40
2017-07-18T04:14:03.088Z,2.37
2017-07-18T04:16:31.922Z,2.72
2017-07-18T04:19:00.076Z,2.70
2017-07-18T04:21:28.938Z,2.60
2017-07-18T04:23:57.010Z,2.83
2017-07-18T04:26:25.087Z,2.90
2017-07-18T04:28:53.196Z,2.22
2017-07-18T04:31:22.034Z,2.37
2017-07-18T04:33:50.502Z,2.80
2017-07-18T04:36:19.013Z,2.62
2017-07-18T04:38:47.088Z,2.70
2017-07-18T04:41:15.158Z,2.50
2017-07-18T04:43:43.259Z,2.72
2017-07-18T04:46:11.735Z,2.37
2017-07-18T04:48:40.243Z,2.72
2017-07-18T04:51:08.314Z,2.58
2017-07-18T04:53:36.386Z,3.25
2017-07-18T04:56:04.911Z,2.90
2017-07-18T04:58:32.974Z,3.35
2017-07-18T05:01:01.820Z,3.33
2017-07-18T05:03:30.354Z,3.28
2017-07-18T05:05:59.199Z,3.22
2017-07-18T05:08:27.271Z,3.45
2017-07-18T05:10:55.371Z,2.95
2017-07-18T05:13:23.447Z,3.53
2017-07-18T05:15:51.920Z,3.30
2017-07-18T05:18:20.019Z,3.12
2017-07-18T05:20:48.859Z,3.30
2017-07-18T05:23:17.698Z,3.10
2017-07-18T05:25:46.202Z,3.62
2017-07-18T05:28:14.279Z,2.78
2017-07-18T05:30:43.139Z,3.20
2017-07-18T05:33:11.214Z,3.75
2017-07-18T05:35:39.304Z,3.28
2017-07-18T05:38:07.403Z,3.83
2017-07-18T05:40:35.479Z,2.75
2017-07-18T05:43:03.551Z,3.40
2017-07-18T05:45:31.650Z,4.12
2017-07-18T05:47:59.724Z,3.42
2017-07-18T05:50:27.834Z,3.30
2017-07-18T05:52:55.907Z,5.82
2017-07-18T05:55:23.978Z,6.00
2017-07-18T05:57:52.070Z,3.80
2017-07-18T06:00:20.902Z,3.35
2017-07-18T06:02:49.009Z,3.08
2017-07-18T06:05:17.070Z,3.28
2017-07-18T06:07:45.179Z,3.90
2017-07-18T06:10:14.016Z,3.40
2017-07-18T06:12:42.097Z,4.22
2017-07-18T06:15:10.196Z,3.60
2017-07-18T06:17:38.270Z,3.60
2017-07-18T06:20:06.347Z,3.45
2017-07-18T06:22:34.449Z,3.37
2017-07-18T06:25:02.529Z,3.00
2017-07-18T06:27:30.594Z,3.50
2017-07-18T06:29:58.691Z,3.17
2017-07-18T06:32:26.898Z,3.40
2017-07-18T06:34:55.368Z,3.65
2017-07-18T06:37:23.438Z,3.33
2017-07-18T06:39:51.550Z,3.10
2017-07-18T06:42:20.385Z,4.70
2017-07-18T06:44:48.464Z,4.50
2017-07-18T06:47:16.954Z,4.20
2017-07-18T06:49:45.031Z,3.97
2017-07-18T06:52:13.544Z,4.60
2017-07-18T06:54:41.607Z,4.43
2017-07-18T06:57:10.448Z,4.28
2017-07-18T06:59:40.694Z,4.65
2017-07-18T07:02:08.811Z,4.20
2017-07-18T07:04:37.659Z,4.15
2017-07-18T07:07:05.848Z,4.85
2017-07-18T07:09:33.918Z,4.55
2017-07-18T07:12:01.986Z,4.85
2017-07-18T07:14:30.095Z,4.10
2017-07-18T07:16:58.565Z,5.50
2017-07-18T07:19:27.402Z,4.95
2017-07-18T07:21:55.498Z,4.28
2017-07-18T07:24:23.588Z,4.53
2017-07-18T07:26:51.673Z,4.32
2017-07-18T07:29:20.538Z,4.32
2017-07-18T07:31:48.615Z,5.18
2017-07-18T07:34:16.698Z,4.60
2017-07-18T07:36:45.230Z,4.80
2017-07-18T07:39:13.303Z,4.55
2017-07-18T07:41:41.767Z,4.82
2017-07-18T07:44:09.875Z,6.05
2017-07-18T07:46:37.950Z,5.32
2017-07-18T07:49:06.023Z,5.45
2017-07-18T07:51:34.118Z,5.15
2017-07-18T07:54:02.954Z,5.28
2017-07-18T07:56:31.033Z,4.82
2017-07-18T07:58:59.145Z,5.70
2017-07-18T08:01:27.215Z,5.85
2017-07-18T08:03:55.290Z,6.80
2017-07-18T08:06:23.430Z,5.00
2017-07-18T08:08:51.898Z,5.95
2017-07-18T08:11:19.966Z,5.45
2017-07-18T08:13:48.070Z,5.43
2017-07-18T08:16:16.263Z,5.30
2017-07-18T08:18:44.729Z,5.00
2017-07-18T08:21:12.795Z,5.70
2017-07-18T08:23:41.630Z,5.32
2017-07-18T08:26:10.472Z,5.87
2017-07-18T08:28:38.666Z,4.90
2017-07-18T08:31:06.711Z,5.20
2017-07-18T08:33:34.804Z,5.05
2017-07-18T08:36:02.891Z,5.43
2017-07-18T08:38:30.962Z,5.65
2017-07-18T08:40:59.035Z,5.25
2017-07-18T08:43:27.139Z,5.25
2017-07-18T08:45:55.974Z,5.35
2017-07-18T08:48:24.046Z,4.62
2017-07-18T08:50:52.162Z,5.68
2017-07-18T08:53:20.230Z,4.10
2017-07-18T08:55:48.302Z,5.15
2017-07-18T08:58:16.402Z,5.10
2017-07-18T09:00:44.482Z,4.62
2017-07-18T09:03:12.545Z,5.25
2017-07-18T09:05:40.642Z,5.30
2017-07-18T09:08:08.758Z,5.25
2017-07-18T09:10:36.831Z,4.68
2017-07-18T09:13:06.410Z,5.03
2017-07-18T09:15:34.498Z,5.15
2017-07-18T09:18:02.572Z,5.30
2017-07-18T09:20:30.678Z,5.05
2017-07-18T09:22:59.514Z,5.00
2017-07-18T09:25:27.593Z,4.07
2017-07-18T09:27:55.690Z,5.65
2017-07-18T09:30:23.767Z,5.00
2017-07-18T09:32:51.847Z,5.55
2017-07-18T09:35:19.936Z,5.03
2017-07-18T09:37:48.770Z,5.70
2017-07-18T09:40:16.911Z,4.78
2017-07-18T09:42:45.375Z,5.55
2017-07-18T09:45:14.211Z,5.82
2017-07-18T09:47:42.341Z,5.20
2017-07-18T09:50:10.420Z,4.95
2017-07-18T09:52:38.490Z,5.10
2017-07-18T09:55:06.605Z,5.50
2017-07-18T09:57:34.674Z,4.65
2017-07-18T10:00:03.266Z,5.47
2017-07-18T10:02:31.442Z,4.50
2017-07-18T10:04:59.618Z,5.40
2017-07-18T10:07:27.695Z,3.62
2017-07-18T10:09:55.865Z,5.35
2017-07-18T10:12:24.033Z,4.40
2017-07-18T10:14:52.210Z,4.35
2017-07-18T10:17:20.685Z,5.03
2017-07-18T10:19:48.865Z,5.32
2017-07-18T10:22:17.060Z,5.20
2017-07-18T10:24:45.214Z,5.72
2017-07-18T10:27:13.695Z,5.15
2017-07-18T10:29:41.870Z,5.28
2017-07-18T10:32:10.041Z,4.55
2017-07-18T10:34:38.218Z,4.22
2017-07-18T10:37:06.322Z,4.68
2017-07-18T10:39:35.182Z,4.47
2017-07-18T10:42:03.354Z,5.25
2017-07-18T10:44:31.535Z,4.75
2017-07-18T10:46:59.702Z,4.03
2017-07-18T10:49:27.806Z,4.70
2017-07-18T10:51:55.887Z,5.75
2017-07-18T10:54:24.723Z,4.45
2017-07-18T10:56:52.853Z,4.80
2017-07-18T10:59:21.694Z,4.37
2017-07-18T11:01:49.766Z,5.65
2017-07-18T11:04:17.878Z,4.32
2017-07-18T11:06:46.738Z,3.92
2017-07-18T11:09:14.920Z,4.25
2017-07-18T11:11:43.022Z,4.05
2017-07-18T11:14:11.875Z,4.50
2017-07-18T11:16:40.047Z,4.43
2017-07-18T11:19:08.222Z,4.00
2017-07-18T11:21:36.389Z,4.12
2017-07-18T11:24:04.574Z,4.40
2017-07-18T11:26:32.746Z,3.80
2017-07-18T11:29:00.923Z,4.47
2017-07-18T11:31:29.096Z,4.10
2017-07-18T11:33:57.681Z,4.70
2017-07-18T11:36:25.850Z,3.85
2017-07-18T11:38:53.926Z,4.22
2017-07-18T11:41:22.438Z,4.40
2017-07-18T11:43:51.273Z,3.72
2017-07-18T11:46:19.356Z,4.35
2017-07-18T11:48:47.446Z,4.40
2017-07-18T11:51:15.562Z,3.92
2017-07-18T11:53:43.635Z,4.30
2017-07-18T11:56:11.715Z,4.12
2017-07-18T11:58:39.818Z,4.12
2017-07-18T12:01:08.658Z,3.75
2017-07-18T12:03:37.494Z,4.20
2017-07-18T12:06:05.682Z,4.50
2017-07-18T12:08:33.862Z,4.65
2017-07-18T12:11:02.037Z,4.30
2017-07-18T12:13:30.206Z,4.22
2017-07-18T12:15:58.618Z,4.47
2017-07-18T12:18:38.537Z,3.72
2017-07-18T12:21:06.678Z,5.03
2017-07-18T12:23:34.886Z,4.03
2017-07-18T12:26:02.962Z,4.22
2017-07-18T12:28:31.126Z,3.80
2017-07-18T12:30:59.306Z,3.78
2017-07-18T12:33:27.479Z,3.80
2017-07-18T12:35:55.574Z,4.22
2017-07-18T12:38:23.726Z,4.18
2017-07-18T12:40:51.830Z,4.03
2017-07-18T12:43:20.691Z,4.30
2017-07-18T12:45:48.873Z,4.87
2017-07-18T12:48:16.969Z,4.40
2017-07-18T12:50:45.826Z,4.43
2017-07-18T12:53:14.003Z,4.35
2017-07-18T12:55:42.081Z,4.80
2017-07-18T12:58:10.187Z,4.60
2017-07-18T13:00:39.037Z,4.62
2017-07-18T13:03:07.106Z,4.40
2017-07-18T13:05:35.206Z,3.75
2017-07-18T13:08:03.274Z,4.30
2017-07-18T13:10:31.380Z,4.87
2017-07-18T13:12:59.458Z,4.00
2017-07-18T13:15:27.538Z,3.85
2017-07-18T13:17:55.642Z,4.37
2017-07-18T13:20:23.718Z,3.85
2017-07-18T13:22:51.793Z,3.70
2017-07-18T13:25:19.906Z,4.65
2017-07-18T13:27:47.982Z,4.40
2017-07-18T13:30:16.059Z,4.25
2017-07-18T13:32:44.150Z,3.90
2017-07-18T13:35:12.217Z,4.12
2017-07-18T13:37:40.313Z,4.28
2017-07-18T13:40:08.468Z,4.50
2017-07-18T13:42:36.530Z,3.70
2017-07-18T13:45:04.631Z,3.97
2017-07-18T13:47:32.698Z,3.87
2017-07-18T13:50:00.771Z,4.05
2017-07-18T13:52:28.883Z,4.00
2017-07-18T13:54:57.727Z,3.90
2017-07-18T13:57:26.966Z,3.95
2017-07-18T13:59:55.051Z,4.12
2017-07-18T14:02:23.897Z,3.97
2017-07-18T14:04:51.994Z,3.80
2017-07-18T14:07:20.070Z,4.10
2017-07-18T14:09:48.143Z,4.10
2017-07-18T14:12:16.254Z,4.03
2017-07-18T14:14:44.334Z,3.65
2017-07-18T14:17:12.446Z,3.95
2017-07-18T14:19:40.522Z,3.75
2017-07-18T14:22:08.598Z,4.10
2017-07-18T14:24:36.693Z,3.75
2017-07-18T14:27:05.594Z,4.18
2017-07-18T14:29:33.670Z,3.50
2017-07-18T14:32:01.779Z,4.60
2017-07-18T14:34:29.850Z,4.78
2017-07-18T14:36:57.926Z,3.72
2017-07-18T14:39:26.038Z,3.50
2017-07-18T14:41:54.878Z,4.12
2017-07-18T14:44:22.949Z,4.12
2017-07-18T14:46:51.059Z,4.10
2017-07-18T14:49:19.129Z,4.18
2017-07-18T14:51:47.209Z,3.65
2017-07-18T14:54:15.298Z,3.87
2017-07-18T14:56:44.143Z,4.05
2017-07-18T14:59:12.256Z,4.03
2017-07-18T15:01:41.105Z,4.00
2017-07-18T15:04:09.561Z,3.85
2017-07-18T15:06:37.657Z,4.18
2017-07-18T15:09:06.146Z,3.70
2017-07-18T15:11:34.321Z,3.92
2017-07-18T15:14:02.495Z,4.62
2017-07-18T15:16:30.666Z,3.58
2017-07-18T15:18:58.843Z,4.45
2017-07-18T15:21:26.925Z,3.70
2017-07-18T15:23:55.090Z,4.00
2017-07-18T15:26:23.161Z,4.43
2017-07-18T15:28:51.634Z,3.45
2017-07-18T15:31:19.734Z,3.95
2017-07-18T15:33:47.810Z,4.07
2017-07-18T15:36:15.882Z,4.07
2017-07-18T15:38:43.978Z,3.40
2017-07-18T15:41:12.126Z,4.10
2017-07-18T15:43:40.224Z,4.20
2017-07-18T15:46:09.068Z,4.05
2017-07-18T15:48:37.162Z,4.03
2017-07-18T15:51:05.266Z,4.30
2017-07-18T15:53:34.141Z,3.95
2017-07-18T15:56:02.211Z,3.85
2017-07-18T15:58:31.159Z,5.30
2017-07-18T16:00:59.206Z,3.55
2017-07-18T16:03:27.287Z,4.30
2017-07-18T16:05:55.379Z,4.03
2017-07-18T16:08:23.455Z,4.28
2017-07-18T16:10:51.950Z,4.37
2017-07-18T16:13:20.027Z,4.78
2017-07-18T16:15:48.122Z,4.15
2017-07-18T16:18:16.287Z,3.87
2017-07-18T16:20:44.381Z,4.00
2017-07-18T16:23:12.850Z,4.10
2017-07-18T16:25:40.945Z,4.05
2017-07-18T16:28:09.794Z,3.78
2017-07-18T16:30:37.867Z,4.40
2017-07-18T16:33:05.938Z,3.83
2017-07-18T16:35:34.034Z,4.93
2017-07-18T16:38:02.884Z,4.60
2017-07-18T16:40:30.978Z,5.47
2017-07-18T16:42:59.057Z,4.50
2017-07-18T16:45:27.134Z,5.20
2017-07-18T16:47:55.278Z,6.37
2017-07-18T16:50:23.870Z,6.18
2017-07-18T16:52:52.129Z,6.25
2017-07-18T16:55:20.958Z,5.03
2017-07-18T16:57:49.922Z,4.43
2017-07-18T17:00:18.002Z,4.22
2017-07-18T17:02:46.888Z,4.30
2017-07-18T17:05:15.066Z,4.50
2017-07-18T17:07:43.238Z,4.53
2017-07-18T17:10:11.338Z,4.90
2017-07-18T17:12:39.426Z,3.58
2017-07-18T17:15:08.371Z,3.95
2017-07-18T17:17:36.550Z,3.83
2017-07-18T17:20:05.026Z,4.10
2017-07-18T17:22:33.299Z,4.32
2017-07-18T17:25:01.790Z,4.62
2017-07-18T17:27:29.866Z,3.97
2017-07-18T17:29:58.388Z,4.00
2017-07-18T17:32:27.226Z,4.53
2017-07-18T17:34:55.302Z,4.25
2017-07-18T17:37:23.391Z,3.50
2017-07-18T17:39:51.866Z,4.30
2017-07-18T17:42:19.970Z,4.78
2017-07-18T17:44:48.812Z,4.90
2017-07-18T17:47:16.966Z,4.70
2017-07-18T17:49:45.086Z,4.05
2017-07-18T17:52:13.168Z,4.75
2017-07-18T17:54:41.662Z,4.43
2017-07-18T17:57:10.616Z,4.53
2017-07-18T17:59:38.685Z,4.25
2017-07-18T18:02:06.858Z,4.40
2017-07-18T18:04:34.970Z,4.07
2017-07-18T18:07:03.517Z,4.68
2017-07-18T18:09:32.102Z,4.20
2017-07-18T18:12:00.278Z,4.50
2017-07-18T18:14:28.450Z,4.03
2017-07-18T18:16:56.624Z,4.05
2017-07-18T18:19:24.798Z,4.07
2017-07-18T18:21:52.875Z,4.60
2017-07-18T18:24:20.986Z,4.05
2017-07-18T18:26:49.458Z,3.83
2017-07-18T18:29:18.001Z,4.35
2017-07-18T18:31:46.094Z,4.82
2017-07-18T18:34:15.075Z,4.50
2017-07-18T18:36:43.550Z,3.90
2017-07-18T18:39:11.627Z,4.93
2017-07-18T18:41:39.722Z,3.87
2017-07-18T18:44:07.870Z,4.75
2017-07-18T18:46:35.983Z,4.40
2017-07-18T18:49:04.835Z,3.78
2017-07-18T18:51:33.006Z,4.30
2017-07-18T18:54:01.178Z,4.93
2017-07-18T18:56:29.359Z,4.50
2017-07-18T18:58:57.834Z,4.95
2017-07-18T19:01:25.910Z,4.90
2017-07-18T19:03:54.082Z,5.15
2017-07-18T19:06:22.178Z,4.47
2017-07-18T19:08:50.322Z,5.00
2017-07-18T19:11:18.502Z,4.50
2017-07-18T19:13:47.086Z,5.32
2017-07-18T19:16:15.274Z,3.95
2017-07-18T19:18:43.339Z,4.53
2017-07-18T19:21:11.914Z,4.93
2017-07-18T19:23:40.094Z,4.32
2017-07-18T19:26:08.698Z,4.78
2017-07-18T19:28:36.850Z,5.00
2017-07-18T19:31:05.021Z,4.90
2017-07-18T19:33:33.498Z,5.15
2017-07-18T19:36:01.590Z,4.82
2017-07-18T19:38:29.705Z,4.87
2017-07-18T19:40:57.821Z,3.80
2017-07-18T19:43:25.914Z,4.00
2017-07-18T19:45:53.990Z,4.65
2017-07-18T19:48:22.146Z,4.90
2017-07-18T19:50:50.246Z,4.75
2017-07-18T19:53:19.102Z,4.12
2017-07-18T19:55:47.182Z,4.85
2017-07-18T19:58:15.353Z,4.85
2017-07-18T20:00:43.526Z,4.43
2017-07-18T20:03:11.698Z,4.15
2017-07-18T20:05:39.874Z,5.12
2017-07-18T20:08:07.946Z,4.60
2017-07-18T20:10:36.824Z,4.57
2017-07-18T20:13:04.913Z,4.90
2017-07-18T20:15:33.750Z,4.45
2017-07-18T20:18:01.845Z,4.55
2017-07-18T20:20:29.930Z,4.65
2017-07-18T20:22:58.034Z,4.75
2017-07-18T20:25:26.110Z,5.10
2017-07-18T20:27:54.189Z,4.22
2017-07-18T20:30:22.293Z,4.55
2017-07-18T20:32:50.374Z,4.45
2017-07-18T20:35:18.452Z,4.25
2017-07-18T20:37:46.546Z,4.50
2017-07-18T20:40:14.622Z,4.60
2017-07-18T20:42:42.725Z,4.90
2017-07-18T20:45:10.802Z,4.75
2017-07-18T20:47:39.642Z,4.55
2017-07-18T20:50:07.730Z,4.68
2017-07-18T20:52:35.798Z,5.45
2017-07-18T20:55:03.909Z,4.15
2017-07-18T20:57:32.750Z,4.70
2017-07-18T21:00:00.823Z,4.47
2017-07-18T21:02:28.930Z,4.55
2017-07-18T21:04:57.001Z,4.60
2017-07-18T21:07:25.111Z,4.93
2017-07-18T21:09:53.182Z,4.35
2017-07-18T21:12:21.250Z,4.47
2017-07-18T21:14:49.361Z,4.47
2017-07-18T21:17:17.431Z,4.35
2017-07-18T21:19:45.502Z,4.22
2017-07-18T21:22:13.597Z,5.75
2017-07-18T21:24:41.713Z,4.07
2017-07-18T21:27:09.782Z,4.95
2017-07-18T21:29:37.878Z,5.10
2017-07-18T21:32:05.959Z,5.82
2017-07-18T21:34:34.070Z,4.22
2017-07-18T21:37:02.143Z,4.78
2017-07-18T21:39:30.216Z,5.15
2017-07-18T21:41:58.302Z,5.55
2017-07-18T21:44:27.142Z,5.80
2017-07-18T21:46:55.238Z,4.57
2017-07-18T21:49:23.309Z,4.68
2017-07-18T21:51:51.386Z,5.20
2017-07-18T21:54:19.490Z,5.55
2017-07-18T21:56:47.587Z,5.45
2017-07-18T21:59:15.659Z,5.22
2017-07-18T22:01:43.766Z,4.40
2017-07-18T22:04:11.834Z,5.78
2017-07-18T22:06:39.914Z,5.32
2017-07-18T22:09:08.014Z,4.90
2017-07-18T22:11:36.846Z,4.78
2017-07-18T22:14:04.923Z,5.65
2017-07-18T22:16:33.033Z,5.15
2017-07-18T22:19:01.097Z,5.30
2017-07-18T22:21:29.178Z,5.75
2017-07-18T22:23:57.314Z,4.80
2017-07-18T22:26:25.391Z,5.50
2017-07-18T22:28:53.458Z,5.25
2017-07-18T22:31:21.566Z,5.30
2017-07-18T22:33:49.642Z,6.00
2017-07-18T22:36:18.489Z,5.57
2017-07-18T22:38:47.727Z,6.30
2017-07-18T22:41:15.802Z,5.25
2017-07-18T22:43:44.652Z,5.37
2017-07-18T22:46:12.762Z,6.15
2017-07-18T22:48:40.834Z,5.95
2017-07-18T22:51:08.913Z,5.47
2017-07-18T22:53:37.775Z,6.55
2017-07-18T22:56:05.846Z,5.93
2017-07-18T22:58:34.682Z,5.60
2017-07-18T23:01:02.798Z,6.43
2017-07-18T23:03:30.866Z,6.20
2017-07-18T23:05:59.714Z,6.47
2017-07-18T23:08:27.812Z,6.03
2017-07-18T23:10:56.650Z,5.57
2017-07-18T23:13:24.718Z,7.28
2017-07-18T23:15:53.210Z,5.93
2017-07-18T23:18:21.311Z,6.10
2017-07-18T23:20:49.411Z,5.93
2017-07-18T23:23:17.513Z,6.57
2017-07-18T23:25:45.590Z,7.07
2017-07-18T23:28:13.662Z,6.45
2017-07-18T23:30:41.813Z,6.05
2017-07-18T23:33:09.875Z,6.57
2017-07-18T23:35:37.950Z,6.30
2017-07-18T23:38:06.063Z,6.60
2017-07-18T23:40:34.134Z,6.15
2017-07-18T23:43:02.211Z,6.82
2017-07-18T23:45:31.087Z,6.85
2017-07-18T23:47:59.157Z,7.65
2017-07-18T23:50:27.234Z,7.00
2017-07-18T23:52:55.334Z,6.50
2017-07-18T23:55:24.166Z,6.78
2017-07-18T23:57:52.667Z,7.43
